Cheyenne Regional Jerry Olson Field
KCYS : now visible

Airfield :











YOU CAN JOIN US ON...

 
LOGIN :

Register | Disclaimer

   EN    FR    IT 

 









Legend :    VFR   Marginal VFR   IFR   Intensive IFR   Very Intensive IFR
Visi :
Ceiling :
>= 8 km
>= 3000ft
5 to 8 km
1000 to 3000 ft
1500m to 5 km
500 to 1000 ft
800 to 1500m
200 to 500 ft
< 800m
< 200 ft
Symbols :   Thunderstorms  Fog  Heavy snow  Heavy precipitations  Wind > 20 kt







- Airport Elevation : 6159 ft
- IATA code : CYS


KCYS - Cheyenne Regional Jerry Olson Field

CURRENT METAR :
  • 200753Z AUTO 11011KT 5SM UP BR OVC003 00/M01 A2996 RMK AO2 UPB32 SLP140 P0000 T00001011

EXPIRED METARs :
  • 200653Z AUTO 10010KT 10SM OVC003 00/M01 A2997 RMK AO2 UPB36E46SNE36 SLP149 P0002 T00001006 400831011
  • 200638Z AUTO 11009KT 8SM UP OVC003 01/M01 A2998 RMK AO2 UPB36SNE36 CIG 002V008 P0002 T00061006
  • 200626Z AUTO 10007KT 3SM -SN BR OVC005 01/M01 A2998 RMK AO2 P0002 T00061006
  • 200611Z AUTO 12009KT 2SM -SN BR SCT003 OVC007 01/M01 A2998 RMK AO2 P0002 T00061006
  • 200553Z AUTO 12010KT 1/2SM SN FG SCT002 OVC006 01/M01 A2998 RMK AO2 SLP151 P0013 60015 T00061006 10067 20006 51003 RVRNO
  • 200544Z AUTO 14004KT 1SM -SN BR SCT002 BKN006 OVC013 01/M01 A2999 RMK AO2 P0010 T00061006 RVRNO
  • 200534Z AUTO 17005KT 1 1/4SM -SN BR BKN003 OVC007 01/M01 A2999 RMK AO2 P0009 T00061006

TAF KCYS
Valid from the 20 at 08:00 until the 21 at 06:00 UTC


200754Z 2008/2106 12011KT 6SM BR OVC003
FM201600 12012KT 2SM -RASN BR OVC003
FM201800 11012KT 4SM -RA BR OVC005
KZDV FIR / North America



MET'MAP, your aeronautical weather chart ! - Copyright ORBIFLY December 2007 - Disclaimer

ORBIFLY MET'MAP TEAM :

Programming & Development : Alexandra Zaïnal
Concept & Development : Baudouin d'Aumeries
Co-Development & Prog : Marc-Olivier Méhu
Technical & hardware support : Manuel Goepfert

Contact : metmap@orbifly.com




SOURCES & CREDITS :

   NOAA       Earth
Advisory